sensor_id;sensor_type;location;lat;lon;timestamp;pressure;altitude;pressure_sealevel;temperature;humidity
30081;BME280;16902;50.816;12.828;2023-03-29T00:03:39;98200.44;;;-1.88;100.00
30081;BME280;16902;50.816;12.828;2023-03-29T00:08:44;98201.81;;;-1.96;100.00
30081;BME280;16902;50.816;12.828;2023-03-29T00:13:47;98197.50;;;-1.96;100.00
30081;BME280;16902;50.816;12.828;2023-03-29T00:18:48;98193.69;;;-2.03;100.00
30081;BME280;16902;50.816;12.828;2023-03-29T00:23:51;98192.22;;;-2.07;100.00
30081;BME280;16902;50.816;12.828;2023-03-29T00:28:52;98187.13;;;-2.07;100.00
30081;BME280;16902;50.816;12.828;2023-03-29T00:33:54;98184.84;;;-1.97;100.00
30081;BME280;16902;50.816;12.828;2023-03-29T00:38:56;98173.19;;;-1.87;100.00
30081;BME280;16902;50.816;12.828;2023-03-29T00:44:00;98177.47;;;-1.73;100.00
30081;BME280;16902;50.816;12.828;2023-03-29T00:49:08;98171.31;;;-1.57;100.00
30081;BME280;16902;50.816;12.828;2023-03-29T00:54:14;98168.38;;;-1.50;100.00
30081;BME280;16902;50.816;12.828;2023-03-29T00:59:21;98153.53;;;-1.44;100.00
30081;BME280;16902;50.816;12.828;2023-03-29T01:04:33;98162.25;;;-1.34;100.00
30081;BME280;16902;50.816;12.828;2023-03-29T01:09:38;98152.41;;;-1.25;100.00
30081;BME280;16902;50.816;12.828;2023-03-29T01:15:04;98147.06;;;-1.22;100.00
30081;BME280;16902;50.816;12.828;2023-03-29T01:20:14;98141.25;;;-1.24;100.00
30081;BME280;16902;50.816;12.828;2023-03-29T01:25:29;98131.03;;;-1.24;100.00
30081;BME280;16902;50.816;12.828;2023-03-29T01:30:42;98123.69;;;-1.16;100.00
30081;BME280;16902;50.816;12.828;2023-03-29T01:35:53;98115.03;;;-1.14;100.00
30081;BME280;16902;50.816;12.828;2023-03-29T01:40:58;98121.59;;;-1.10;100.00
30081;BME280;16902;50.816;12.828;2023-03-29T01:46:10;98114.16;;;-1.00;100.00
30081;BME280;16902;50.816;12.828;2023-03-29T01:51:21;98109.44;;;-0.93;100.00
30081;BME280;16902;50.816;12.828;2023-03-29T01:56:26;98098.28;;;-0.92;100.00
30081;BME280;16902;50.816;12.828;2023-03-29T02:01:34;98096.59;;;-0.92;100.00
30081;BME280;16902;50.816;12.828;2023-03-29T02:06:41;98087.06;;;-0.90;100.00
30081;BME280;16902;50.816;12.828;2023-03-29T02:11:44;98078.06;;;-0.83;100.00
30081;BME280;16902;50.816;12.828;2023-03-29T02:16:47;98081.06;;;-0.76;100.00
30081;BME280;16902;50.816;12.828;2023-03-29T02:22:02;98065.81;;;-0.78;100.00
30081;BME280;16902;50.816;12.828;2023-03-29T02:27:08;98065.41;;;-0.84;100.00
30081;BME280;16902;50.816;12.828;2023-03-29T02:32:15;98054.69;;;-0.76;100.00
30081;BME280;16902;50.816;12.828;2023-03-29T02:37:22;98052.63;;;-0.71;100.00
30081;BME280;16902;50.816;12.828;2023-03-29T02:42:29;98049.78;;;-0.67;100.00
30081;BME280;16902;50.816;12.828;2023-03-29T02:47:36;98035.69;;;-0.72;100.00
30081;BME280;16902;50.816;12.828;2023-03-29T02:52:43;98025.03;;;-0.66;100.00
30081;BME280;16902;50.816;12.828;2023-03-29T02:57:47;98021.34;;;-0.75;100.00
30081;BME280;16902;50.816;12.828;2023-03-29T03:02:49;98009.06;;;-0.70;100.00
30081;BME280;16902;50.816;12.828;2023-03-29T03:07:53;98008.75;;;-0.65;100.00
30081;BME280;16902;50.816;12.828;2023-03-29T03:12:55;98002.94;;;-0.67;100.00
30081;BME280;16902;50.816;12.828;2023-03-29T03:17:56;97994.53;;;-0.69;100.00
30081;BME280;16902;50.816;12.828;2023-03-29T03:22:58;97988.94;;;-0.74;100.00
30081;BME280;16902;50.816;12.828;2023-03-29T03:28:01;97988.50;;;-0.68;100.00
30081;BME280;16902;50.816;12.828;2023-03-29T03:33:03;97983.19;;;-0.65;100.00
30081;BME280;16902;50.816;12.828;2023-03-29T03:38:35;97985.13;;;-0.56;100.00
30081;BME280;16902;50.816;12.828;2023-03-29T03:43:38;97971.91;;;-0.50;100.00
30081;BME280;16902;50.816;12.828;2023-03-29T03:48:45;97971.72;;;-0.47;100.00
30081;BME280;16902;50.816;12.828;2023-03-29T03:54:03;97980.72;;;-0.41;100.00
30081;BME280;16902;50.816;12.828;2023-03-29T03:59:05;97974.34;;;-0.36;100.00
30081;BME280;16902;50.816;12.828;2023-03-29T04:04:29;97972.78;;;-0.26;100.00
30081;BME280;16902;50.816;12.828;2023-03-29T04:09:51;97966.97;;;-0.28;100.00
30081;BME280;16902;50.816;12.828;2023-03-29T04:15:17;97965.59;;;-0.20;100.00
30081;BME280;16902;50.816;12.828;2023-03-29T04:20:32;97961.78;;;-0.15;100.00
30081;BME280;16902;50.816;12.828;2023-03-29T04:25:34;97955.94;;;-0.04;100.00
30081;BME280;16902;50.816;12.828;2023-03-29T04:30:56;97967.03;;;0.08;100.00
30081;BME280;16902;50.816;12.828;2023-03-29T04:36:09;97966.28;;;0.18;100.00
30081;BME280;16902;50.816;12.828;2023-03-29T04:41:14;97963.44;;;0.34;100.00
30081;BME280;16902;50.816;12.828;2023-03-29T04:46:16;97956.81;;;0.43;100.00
30081;BME280;16902;50.816;12.828;2023-03-29T04:51:36;97962.44;;;0.48;100.00
30081;BME280;16902;50.816;12.828;2023-03-29T04:56:38;97955.03;;;0.67;100.00
30081;BME280;16902;50.816;12.828;2023-03-29T05:02:03;97948.88;;;0.81;100.00
30081;BME280;16902;50.816;12.828;2023-03-29T05:07:06;97956.03;;;0.89;100.00
30081;BME280;16902;50.816;12.828;2023-03-29T05:12:08;97944.50;;;0.94;100.00
30081;BME280;16902;50.816;12.828;2023-03-29T05:17:25;97943.22;;;1.11;100.00
30081;BME280;16902;50.816;12.828;2023-03-29T05:22:33;97936.56;;;1.20;100.00
30081;BME280;16902;50.816;12.828;2023-03-29T05:27:36;97943.00;;;1.37;100.00
30081;BME280;16902;50.816;12.828;2023-03-29T05:32:42;97938.47;;;1.40;100.00
30081;BME280;16902;50.816;12.828;2023-03-29T05:37:48;97941.59;;;1.44;100.00
30081;BME280;16902;50.816;12.828;2023-03-29T05:42:51;97937.13;;;1.68;100.00
30081;BME280;16902;50.816;12.828;2023-03-29T05:47:54;97926.91;;;2.00;100.00
30081;BME280;16902;50.816;12.828;2023-03-29T05:52:57;97923.47;;;2.43;100.00
30081;BME280;16902;50.816;12.828;2023-03-29T05:57:59;97914.25;;;2.62;100.00
30081;BME280;16902;50.816;12.828;2023-03-29T06:03:06;97925.78;;;2.67;100.00
30081;BME280;16902;50.816;12.828;2023-03-29T06:08:21;97926.16;;;2.63;100.00
30081;BME280;16902;50.816;12.828;2023-03-29T06:13:46;97930.16;;;2.55;100.00
30081;BME280;16902;50.816;12.828;2023-03-29T06:18:50;97936.88;;;2.47;100.00
30081;BME280;16902;50.816;12.828;2023-03-29T06:23:53;97934.34;;;2.36;100.00
30081;BME280;16902;50.816;12.828;2023-03-29T06:28:56;97925.97;;;2.34;100.00
30081;BME280;16902;50.816;12.828;2023-03-29T06:33:59;97926.25;;;2.40;100.00
30081;BME280;16902;50.816;12.828;2023-03-29T06:39:25;97916.13;;;2.60;100.00
30081;BME280;16902;50.816;12.828;2023-03-29T06:44:54;97913.66;;;2.79;100.00
30081;BME280;16902;50.816;12.828;2023-03-29T06:49:57;97928.19;;;2.90;100.00
30081;BME280;16902;50.816;12.828;2023-03-29T06:55:11;97926.63;;;2.98;100.00
30081;BME280;16902;50.816;12.828;2023-03-29T07:00:15;97928.25;;;2.99;100.00
30081;BME280;16902;50.816;12.828;2023-03-29T07:05:37;97924.41;;;3.15;100.00
30081;BME280;16902;50.816;12.828;2023-03-29T07:10:49;97922.59;;;3.36;100.00
30081;BME280;16902;50.816;12.828;2023-03-29T07:16:16;97936.91;;;3.59;100.00
30081;BME280;16902;50.816;12.828;2023-03-29T07:21:22;97942.84;;;3.60;100.00
30081;BME280;16902;50.816;12.828;2023-03-29T07:26:24;97937.47;;;3.73;100.00
30081;BME280;16902;50.816;12.828;2023-03-29T07:31:32;97939.81;;;3.95;100.00
30081;BME280;16902;50.816;12.828;2023-03-29T07:36:56;97940.50;;;4.07;100.00
30081;BME280;16902;50.816;12.828;2023-03-29T07:41:58;97942.28;;;4.16;100.00
30081;BME280;16902;50.816;12.828;2023-03-29T07:47:00;97931.69;;;4.19;100.00
30081;BME280;16902;50.816;12.828;2023-03-29T07:52:03;97938.47;;;4.39;100.00
30081;BME280;16902;50.816;12.828;2023-03-29T07:57:06;97947.44;;;4.55;100.00
30081;BME280;16902;50.816;12.828;2023-03-29T08:02:14;97945.66;;;4.55;100.00
30081;BME280;16902;50.816;12.828;2023-03-29T08:07:23;97936.16;;;4.56;100.00
30081;BME280;16902;50.816;12.828;2023-03-29T08:12:26;97921.69;;;5.02;100.00
30081;BME280;16902;50.816;12.828;2023-03-29T08:17:32;97929.97;;;5.43;100.00
30081;BME280;16902;50.816;12.828;2023-03-29T08:22:37;97927.59;;;5.49;100.00
30081;BME280;16902;50.816;12.828;2023-03-29T08:27:39;97922.00;;;5.54;100.00
30081;BME280;16902;50.816;12.828;2023-03-29T08:32:43;97924.59;;;5.54;100.00
30081;BME280;16902;50.816;12.828;2023-03-29T08:37:50;97916.16;;;5.79;100.00
30081;BME280;16902;50.816;12.828;2023-03-29T08:48:33;97914.53;;;6.06;100.00
30081;BME280;16902;50.816;12.828;2023-03-29T08:53:45;97909.03;;;6.09;100.00
30081;BME280;16902;50.816;12.828;2023-03-29T08:58:56;97904.31;;;6.04;100.00
30081;BME280;16902;50.816;12.828;2023-03-29T09:04:05;97906.38;;;6.18;100.00
30081;BME280;16902;50.816;12.828;2023-03-29T09:09:33;97901.72;;;6.58;100.00
30081;BME280;16902;50.816;12.828;2023-03-29T09:15:02;97894.44;;;7.13;100.00
30081;BME280;16902;50.816;12.828;2023-03-29T09:36:01;97889.50;;;7.87;100.00
30081;BME280;16902;50.816;12.828;2023-03-29T09:41:18;97889.22;;;7.98;100.00
30081;BME280;16902;50.816;12.828;2023-03-29T09:46:39;97888.75;;;8.27;100.00
30081;BME280;16902;50.816;12.828;2023-03-29T09:51:43;97886.81;;;8.70;100.00
30081;BME280;16902;50.816;12.828;2023-03-29T09:56:48;97884.72;;;8.57;100.00
30081;BME280;16902;50.816;12.828;2023-03-29T10:02:04;97871.16;;;8.94;100.00
30081;BME280;16902;50.816;12.828;2023-03-29T10:07:18;97877.44;;;9.56;100.00
30081;BME280;16902;50.816;12.828;2023-03-29T10:12:28;97874.22;;;9.14;100.00
30081;BME280;16902;50.816;12.828;2023-03-29T10:17:38;97870.34;;;9.02;100.00
30081;BME280;16902;50.816;12.828;2023-03-29T10:22:46;97857.63;;;9.55;100.00
30081;BME280;16902;50.816;12.828;2023-03-29T10:27:49;97869.69;;;9.47;100.00
30081;BME280;16902;50.816;12.828;2023-03-29T10:32:55;97850.47;;;9.88;100.00
30081;BME280;16902;50.816;12.828;2023-03-29T10:38:03;97849.06;;;10.23;100.00
30081;BME280;16902;50.816;12.828;2023-03-29T10:43:19;97857.84;;;10.30;100.00
30081;BME280;16902;50.816;12.828;2023-03-29T10:48:29;97850.44;;;10.57;100.00
30081;BME280;16902;50.816;12.828;2023-03-29T10:53:34;97833.66;;;10.74;100.00
30081;BME280;16902;50.816;12.828;2023-03-29T10:59:08;97839.94;;;11.24;100.00
30081;BME280;16902;50.816;12.828;2023-03-29T11:09:43;97819.38;;;10.99;100.00
30081;BME280;16902;50.816;12.828;2023-03-29T11:31:24;97806.69;;;10.14;100.00
30081;BME280;16902;50.816;12.828;2023-03-29T11:36:47;97806.53;;;9.93;100.00
30081;BME280;16902;50.816;12.828;2023-03-29T11:41:54;97808.69;;;9.89;100.00
30081;BME280;16902;50.816;12.828;2023-03-29T11:47:14;97805.88;;;9.91;100.00
30081;BME280;16902;50.816;12.828;2023-03-29T11:52:24;97805.56;;;9.94;100.00
30081;BME280;16902;50.816;12.828;2023-03-29T11:57:54;97798.97;;;9.83;100.00
30081;BME280;16902;50.816;12.828;2023-03-29T12:03:18;97794.59;;;10.44;100.00
30081;BME280;16902;50.816;12.828;2023-03-29T12:08:29;97800.31;;;11.14;100.00
30081;BME280;16902;50.816;12.828;2023-03-29T12:19:01;97787.66;;;11.83;100.00
30081;BME280;16902;50.816;12.828;2023-03-29T12:24:05;97787.28;;;11.14;100.00
30081;BME280;16902;50.816;12.828;2023-03-29T12:39:43;97771.50;;;13.26;100.00
30081;BME280;16902;50.816;12.828;2023-03-29T12:45:04;97766.50;;;13.38;100.00
30081;BME280;16902;50.816;12.828;2023-03-29T12:50:20;97763.19;;;12.68;100.00
30081;BME280;16902;50.816;12.828;2023-03-29T12:55:33;97765.00;;;13.83;100.00
30081;BME280;16902;50.816;12.828;2023-03-29T13:05:37;97748.91;;;13.05;100.00
30081;BME280;16902;50.816;12.828;2023-03-29T13:10:40;97731.13;;;12.18;100.00
30081;BME280;16902;50.816;12.828;2023-03-29T13:15:43;97739.63;;;11.56;100.00
30081;BME280;16902;50.816;12.828;2023-03-29T13:21:00;97735.44;;;11.19;100.00
30081;BME280;16902;50.816;12.828;2023-03-29T13:26:25;97740.75;;;11.47;100.00
30081;BME280;16902;50.816;12.828;2023-03-29T13:37:28;97723.31;;;11.90;100.00
30081;BME280;16902;50.816;12.828;2023-03-29T13:47:42;97705.34;;;14.25;100.00
30081;BME280;16902;50.816;12.828;2023-03-29T13:53:25;97718.28;;;14.13;100.00
30081;BME280;16902;50.816;12.828;2023-03-29T13:58:47;97708.31;;;13.16;100.00
30081;BME280;16902;50.816;12.828;2023-03-29T14:03:50;97714.56;;;12.67;100.00
30081;BME280;16902;50.816;12.828;2023-03-29T14:08:54;97711.81;;;12.13;100.00
30081;BME280;16902;50.816;12.828;2023-03-29T14:13:57;97707.69;;;11.97;100.00
30081;BME280;16902;50.816;12.828;2023-03-29T14:19:10;97707.75;;;12.03;100.00
30081;BME280;16902;50.816;12.828;2023-03-29T14:24:22;97715.22;;;12.13;100.00
30081;BME280;16902;50.816;12.828;2023-03-29T14:29:31;97720.84;;;12.38;100.00
30081;BME280;16902;50.816;12.828;2023-03-29T14:34:33;97719.31;;;13.79;100.00
30081;BME280;16902;50.816;12.828;2023-03-29T14:39:35;97707.47;;;13.09;100.00
30081;BME280;16902;50.816;12.828;2023-03-29T14:44:38;97698.78;;;12.95;100.00
30081;BME280;16902;50.816;12.828;2023-03-29T14:49:40;97704.97;;;12.81;100.00
30081;BME280;16902;50.816;12.828;2023-03-29T14:54:45;97708.50;;;12.25;100.00
30081;BME280;16902;50.816;12.828;2023-03-29T15:00:10;97699.06;;;12.24;100.00
30081;BME280;16902;50.816;12.828;2023-03-29T15:05:42;97676.94;;;12.20;100.00
30081;BME280;16902;50.816;12.828;2023-03-29T15:10:48;97668.81;;;12.08;100.00
30081;BME280;16902;50.816;12.828;2023-03-29T15:15:52;97666.06;;;12.10;100.00
30081;BME280;16902;50.816;12.828;2023-03-29T15:20:54;97653.94;;;12.37;100.00
30081;BME280;16902;50.816;12.828;2023-03-29T15:26:04;97651.53;;;12.35;100.00
30081;BME280;16902;50.816;12.828;2023-03-29T15:31:12;97647.94;;;12.08;100.00
30081;BME280;16902;50.816;12.828;2023-03-29T15:36:15;97665.25;;;12.09;100.00
30081;BME280;16902;50.816;12.828;2023-03-29T15:41:17;97665.03;;;12.11;100.00
30081;BME280;16902;50.816;12.828;2023-03-29T15:46:19;97667.06;;;12.09;100.00
30081;BME280;16902;50.816;12.828;2023-03-29T15:51:21;97655.34;;;11.77;100.00
30081;BME280;16902;50.816;12.828;2023-03-29T15:56:22;97650.34;;;11.54;100.00
30081;BME280;16902;50.816;12.828;2023-03-29T16:01:26;97653.72;;;11.26;100.00
30081;BME280;16902;50.816;12.828;2023-03-29T16:06:37;97647.84;;;11.18;100.00
30081;BME280;16902;50.816;12.828;2023-03-29T16:11:40;97650.00;;;11.14;100.00
30081;BME280;16902;50.816;12.828;2023-03-29T16:16:43;97648.50;;;11.05;100.00
30081;BME280;16902;50.816;12.828;2023-03-29T16:21:45;97649.25;;;10.99;100.00
30081;BME280;16902;50.816;12.828;2023-03-29T16:26:47;97638.84;;;10.99;100.00
30081;BME280;16902;50.816;12.828;2023-03-29T16:31:50;97638.13;;;10.90;100.00
30081;BME280;16902;50.816;12.828;2023-03-29T16:36:53;97636.69;;;10.88;100.00
30081;BME280;16902;50.816;12.828;2023-03-29T16:41:55;97639.03;;;10.82;100.00
30081;BME280;16902;50.816;12.828;2023-03-29T16:46:57;97634.97;;;10.73;100.00
30081;BME280;16902;50.816;12.828;2023-03-29T16:51:59;97631.53;;;10.73;100.00
30081;BME280;16902;50.816;12.828;2023-03-29T16:57:01;97629.31;;;10.70;100.00
30081;BME280;16902;50.816;12.828;2023-03-29T17:02:03;97622.44;;;10.47;100.00
30081;BME280;16902;50.816;12.828;2023-03-29T17:07:06;97626.22;;;10.45;100.00
30081;BME280;16902;50.816;12.828;2023-03-29T17:12:08;97625.88;;;10.33;100.00
30081;BME280;16902;50.816;12.828;2023-03-29T17:17:10;97622.91;;;10.21;100.00
30081;BME280;16902;50.816;12.828;2023-03-29T17:22:11;97625.94;;;10.10;100.00
30081;BME280;16902;50.816;12.828;2023-03-29T17:27:13;97631.41;;;10.00;100.00
30081;BME280;16902;50.816;12.828;2023-03-29T17:32:15;97631.56;;;9.84;100.00
30081;BME280;16902;50.816;12.828;2023-03-29T17:37:18;97617.47;;;9.64;100.00
30081;BME280;16902;50.816;12.828;2023-03-29T17:42:21;97617.19;;;9.44;100.00
30081;BME280;16902;50.816;12.828;2023-03-29T17:47:23;97622.78;;;9.33;100.00
30081;BME280;16902;50.816;12.828;2023-03-29T17:52:25;97629.19;;;9.22;100.00
30081;BME280;16902;50.816;12.828;2023-03-29T17:57:27;97632.69;;;9.14;100.00
30081;BME280;16902;50.816;12.828;2023-03-29T18:02:29;97639.88;;;9.04;100.00
30081;BME280;16902;50.816;12.828;2023-03-29T18:07:31;97649.22;;;8.90;100.00
30081;BME280;16902;50.816;12.828;2023-03-29T18:12:33;97643.31;;;8.73;100.00
30081;BME280;16902;50.816;12.828;2023-03-29T18:17:35;97648.31;;;8.75;100.00
30081;BME280;16902;50.816;12.828;2023-03-29T18:22:38;97649.38;;;8.66;100.00
30081;BME280;16902;50.816;12.828;2023-03-29T18:27:40;97656.00;;;8.60;100.00
30081;BME280;16902;50.816;12.828;2023-03-29T18:32:42;97650.97;;;8.67;100.00
30081;BME280;16902;50.816;12.828;2023-03-29T18:37:44;97657.06;;;8.82;100.00
30081;BME280;16902;50.816;12.828;2023-03-29T18:42:46;97652.97;;;8.88;100.00
30081;BME280;16902;50.816;12.828;2023-03-29T18:47:48;97651.63;;;8.92;100.00
30081;BME280;16902;50.816;12.828;2023-03-29T18:52:51;97644.53;;;8.86;100.00
30081;BME280;16902;50.816;12.828;2023-03-29T18:57:53;97645.59;;;8.68;100.00
30081;BME280;16902;50.816;12.828;2023-03-29T19:02:55;97644.28;;;8.33;100.00
30081;BME280;16902;50.816;12.828;2023-03-29T19:07:57;97639.50;;;8.14;100.00
30081;BME280;16902;50.816;12.828;2023-03-29T19:12:59;97644.38;;;8.09;100.00
30081;BME280;16902;50.816;12.828;2023-03-29T19:18:01;97633.56;;;7.81;100.00
30081;BME280;16902;50.816;12.828;2023-03-29T19:23:03;97638.78;;;7.64;100.00
30081;BME280;16902;50.816;12.828;2023-03-29T19:28:05;97631.16;;;7.71;100.00
30081;BME280;16902;50.816;12.828;2023-03-29T19:33:07;97630.69;;;7.59;100.00
30081;BME280;16902;50.816;12.828;2023-03-29T19:38:09;97627.63;;;7.56;100.00
30081;BME280;16902;50.816;12.828;2023-03-29T19:43:11;97621.47;;;7.48;100.00
30081;BME280;16902;50.816;12.828;2023-03-29T19:48:19;97611.59;;;7.52;100.00
30081;BME280;16902;50.816;12.828;2023-03-29T19:53:24;97605.44;;;7.61;100.00
30081;BME280;16902;50.816;12.828;2023-03-29T19:58:27;97598.56;;;7.85;100.00
30081;BME280;16902;50.816;12.828;2023-03-29T20:03:29;97599.41;;;7.77;100.00
30081;BME280;16902;50.816;12.828;2023-03-29T20:08:34;97593.94;;;7.56;100.00
30081;BME280;16902;50.816;12.828;2023-03-29T20:13:40;97586.50;;;7.44;100.00
30081;BME280;16902;50.816;12.828;2023-03-29T20:18:43;97574.56;;;7.27;100.00
30081;BME280;16902;50.816;12.828;2023-03-29T20:23:45;97580.38;;;7.29;100.00
30081;BME280;16902;50.816;12.828;2023-03-29T20:28:47;97578.25;;;7.33;100.00
30081;BME280;16902;50.816;12.828;2023-03-29T20:33:50;97552.38;;;7.08;100.00
30081;BME280;16902;50.816;12.828;2023-03-29T20:38:52;97554.16;;;6.83;100.00
30081;BME280;16902;50.816;12.828;2023-03-29T20:43:57;97549.16;;;6.74;100.00
30081;BME280;16902;50.816;12.828;2023-03-29T20:49:00;97540.25;;;6.60;100.00
30081;BME280;16902;50.816;12.828;2023-03-29T20:54:04;97539.91;;;6.38;100.00
30081;BME280;16902;50.816;12.828;2023-03-29T20:59:06;97535.34;;;6.24;100.00
30081;BME280;16902;50.816;12.828;2023-03-29T21:04:11;97521.56;;;6.15;100.00
30081;BME280;16902;50.816;12.828;2023-03-29T21:09:13;97518.97;;;6.07;100.00
30081;BME280;16902;50.816;12.828;2023-03-29T21:14:15;97516.81;;;5.95;100.00
30081;BME280;16902;50.816;12.828;2023-03-29T21:19:21;97510.91;;;5.76;100.00
30081;BME280;16902;50.816;12.828;2023-03-29T21:24:24;97511.38;;;5.72;100.00
30081;BME280;16902;50.816;12.828;2023-03-29T21:29:27;97504.63;;;5.79;100.00
30081;BME280;16902;50.816;12.828;2023-03-29T21:34:28;97498.59;;;5.70;100.00
30081;BME280;16902;50.816;12.828;2023-03-29T21:39:30;97494.06;;;5.64;100.00
30081;BME280;16902;50.816;12.828;2023-03-29T21:44:32;97494.69;;;5.58;100.00
30081;BME280;16902;50.816;12.828;2023-03-29T21:49:35;97497.50;;;5.73;100.00
30081;BME280;16902;50.816;12.828;2023-03-29T21:54:36;97488.34;;;5.86;100.00
30081;BME280;16902;50.816;12.828;2023-03-29T21:59:38;97492.28;;;5.99;100.00
30081;BME280;16902;50.816;12.828;2023-03-29T22:04:40;97491.34;;;6.08;100.00
30081;BME280;16902;50.816;12.828;2023-03-29T22:09:42;97482.78;;;6.24;100.00
30081;BME280;16902;50.816;12.828;2023-03-29T22:14:44;97480.09;;;6.50;100.00
30081;BME280;16902;50.816;12.828;2023-03-29T22:19:46;97486.25;;;6.98;100.00
30081;BME280;16902;50.816;12.828;2023-03-29T22:24:53;97495.44;;;7.00;100.00
30081;BME280;16902;50.816;12.828;2023-03-29T22:29:55;97492.69;;;7.18;100.00
30081;BME280;16902;50.816;12.828;2023-03-29T22:34:59;97498.78;;;7.33;100.00
30081;BME280;16902;50.816;12.828;2023-03-29T22:40:00;97497.63;;;7.44;100.00
30081;BME280;16902;50.816;12.828;2023-03-29T22:45:03;97497.66;;;7.36;100.00
30081;BME280;16902;50.816;12.828;2023-03-29T22:50:06;97499.13;;;7.30;100.00
30081;BME280;16902;50.816;12.828;2023-03-29T22:55:08;97478.63;;;7.04;100.00
30081;BME280;16902;50.816;12.828;2023-03-29T23:00:10;97478.78;;;6.86;100.00
30081;BME280;16902;50.816;12.828;2023-03-29T23:05:13;97465.06;;;6.78;100.00
30081;BME280;16902;50.816;12.828;2023-03-29T23:10:15;97454.72;;;6.69;100.00
30081;BME280;16902;50.816;12.828;2023-03-29T23:15:17;97449.53;;;6.69;100.00
30081;BME280;16902;50.816;12.828;2023-03-29T23:20:23;97440.81;;;6.70;100.00
30081;BME280;16902;50.816;12.828;2023-03-29T23:25:26;97429.34;;;6.73;100.00
30081;BME280;16902;50.816;12.828;2023-03-29T23:30:28;97425.59;;;6.76;100.00
30081;BME280;16902;50.816;12.828;2023-03-29T23:35:32;97429.94;;;7.00;100.00
30081;BME280;16902;50.816;12.828;2023-03-29T23:40:34;97427.03;;;6.94;100.00
30081;BME280;16902;50.816;12.828;2023-03-29T23:45:36;97423.00;;;6.92;100.00
30081;BME280;16902;50.816;12.828;2023-03-29T23:50:38;97418.63;;;6.92;100.00
30081;BME280;16902;50.816;12.828;2023-03-29T23:55:40;97389.06;;;6.87;100.00
